Flight Track Log - Related Links

Times and Time Zones

All times are in EDT time to prevent confusion due to time zone crossing. See the EJA929 flight status page for this flight to view local times or setup timezone preferences in your user account.

Time Position Orientation Groundspeed Altitude Reporting Facility
EDT Latitude Longitude Course Direction KTS MPH feet Rate Location/Type
Wed 10:41:15 AM 29.9956 -90.2794 248° West 165 190 600  Level Houston Center
Wed 10:42:28 AM 29.9725 -90.3453 248° West 261 300 3,600 2,594 Climbing Houston Center
Wed 10:43:50 AM 29.9369 -90.2608 116° Southeast 291 335 7,300 2,917 Climbing Houston Center
Wed 10:44:52 AM 29.9356 -90.1464 91° East 299 344 10,600 2,081 Climbing Houston Center
Wed 10:45:54 AM 29.9372 -90.0353 89° East 339 390 11,600 1,403 Climbing Houston Center
Wed 10:46:56 AM 29.9639 -89.9197 75° East 372 428 13,500 1,597 Climbing Houston Center
Wed 10:47:58 AM 29.9925 -89.8025 74° East 380 437 14,900 1,645 Climbing Houston Center
Wed 10:49:00 AM 30.0275 -89.6592 74° East 390 449 16,900 1,632 Climbing Houston Center
Wed 10:50:03 AM 30.0556 -89.5389 75° East 393 452 18,300 1,306 Climbing Houston Center
Wed 10:51:04 AM 30.0864 -89.4189 73° East 394 453 19,600 1,306 Climbing Houston Center
Wed 10:52:07 AM 30.1642 -89.3289 45° Northeast 396 456 21,000 1,152 Climbing Houston Center
Wed 10:53:09 AM 30.2458 -89.2431 42° Northeast 399 459 22,000 968 Climbing Houston Center
Wed 10:54:11 AM 30.3458 -89.1369 42° Northeast 408 470 23,000 484 Climbing Houston Center
Wed 10:55:13 AM 30.4439 -89.0572 35° Northeast 430 495 23,000  Level Houston Center
Wed 10:56:15 AM 30.5550 -88.9992 24° Northeast 443 510 23,000  Level Houston Center
Wed 10:57:17 AM 30.6681 -88.9442 23° Northeast 443 510 23,000  Level Houston Center
Wed 10:58:19 AM 30.7978 -88.8769 24° Northeast 439 505 23,000  Level Houston Center
Wed 10:59:21 AM 30.9056 -88.8225 23° Northeast 425 489 23,000  Level Houston Center
Wed 11:00:24 AM 31.0167 -88.7661 24° Northeast 430 495 23,000  Level Houston Center
Wed 11:01:26 AM 31.1339 -88.7261 16° North 449 517 23,000  Level Houston Center
Wed 11:02:28 AM 31.2575 -88.7300 358° North 449 517 23,000  Level Houston Center
Wed 11:03:30 AM 31.3811 -88.7500 352° North 446 513 23,000  Level Houston Center
Wed 11:04:32 AM 31.5050 -88.7711 352° North 448 516 23,000  Level Houston Center
Wed 11:05:34 AM 31.6525 -88.7947 352° North 447 514 23,000  Level Houston Center
Wed 11:06:36 AM 31.7772 -88.8156 352° North 452 520 23,000  Level Houston Center
Wed 11:07:30 AM 31.8794 -88.8136 North 444 511 23,000  Level Memphis Center
Wed 11:08:30 AM 32.0122 -88.7453 24° Northeast 453 521 23,000 -300 Level Memphis Center
Wed 11:09:30 AM 32.1133 -88.6650 34° Northeast 441 507 22,400 -1,050 Descending Memphis Center
Wed 11:10:30 AM 32.2083 -88.5797 37° Northeast 429 494 20,900 -1,450 Descending Memphis Center
Wed 11:11:30 AM 32.2803 -88.5069 41° Northeast 406 467 19,500 -1,450 Descending Memphis Center
Wed 11:12:30 AM 32.3647 -88.4317 37° Northeast 385 443 18,000 -1,400 Descending Memphis Center
Wed 11:13:30 AM 32.4489 -88.3508 39° Northeast 385 443 16,700 -1,400 Descending Memphis Center
Wed 11:14:30 AM 32.5353 -88.2703 38° Northeast 385 443 15,200 -1,500 Descending Memphis Center
Wed 11:15:30 AM 32.6133 -88.1944 39° Northeast 379 436 13,700 -1,500 Descending Memphis Center
Wed 11:16:30 AM 32.6894 -88.1233 38° Northeast 363 418 12,200 -1,650 Descending Memphis Center
Wed 11:17:30 AM 32.7592 -88.0622 36° Northeast 333 383 10,400 -1,750 Descending Memphis Center
Wed 11:18:30 AM 32.8228 -87.9964 41° Northeast 309 356 8,700 -1,700 Descending Memphis Center
Wed 11:19:30 AM 32.8883 -87.9378 37° Northeast 296 341 7,000 -1,950 Descending Memphis Center
Wed 11:20:30 AM 32.9517 -87.8717 41° Northeast 286 329 4,800 -1,500 Descending Memphis Center
Wed 11:21:30 AM 32.9989 -87.8233 41° Northeast 256 295 4,000 -400 Descending Memphis Center
Wed 11:22:30 AM 33.0358 -87.7900 37° Northeast 203 234 4,000  Level Memphis Center
Wed 11:23:30 AM 33.0747 -87.7542 38° Northeast 174 200 4,000 50 Level Memphis Center
Wed 11:24:30 AM 33.0883 -87.7117 69° East 138 159 4,100 -100 Climbing Memphis Center
Wed 11:25:30 AM 33.0450 -87.7353 205° Southwest 60 69 3,800 -550 Descending Memphis Center
Wed 11:26:30 AM 33.0147 -87.7881 236° Southwest 131 151 3,000 -400 Descending Memphis Center
Wed 11:27:30 AM 32.9858 -87.8014 201° Southwest 131 151 3,000 50 Level Memphis Center
Wed 11:28:30 AM 33.0789 -87.7567 22° Northeast 441 507 3,100  Climbing Memphis Center
Wed 11:29:30 AM 33.1461 -87.6800 44° Northeast 383 441 3,000 -590 Descending Memphis Center
Wed 11:31:33 AM 33.1625 -87.6692 29° Northeast 116 133 1,300 -576 Descending Atlanta Center
Wed 11:32:27 AM 33.1733 -87.6597 36° Northeast 116 133 1,300  Level Atlanta Center
Wed 11:34:28 AM 33.1733 -87.6597 331° Northwest 116 133 1,300  Level Atlanta Center

Login

Don't have an account? Register now (free) for customized features, flight alerts, and more!